sensor_id;sensor_type;location;lat;lon;timestamp;temperature;humidity
51035;DHT22;37062;52.546;13.230;2023-04-07T00:00:02;7.10;99.90
51035;DHT22;37062;52.546;13.230;2023-04-07T00:02:38;7.10;99.90
51035;DHT22;37062;52.546;13.230;2023-04-07T00:05:10;7.10;99.90
51035;DHT22;37062;52.546;13.230;2023-04-07T00:07:38;7.10;99.90
51035;DHT22;37062;52.546;13.230;2023-04-07T00:10:22;7.10;99.90
51035;DHT22;37062;52.546;13.230;2023-04-07T00:12:50;7.00;99.90
51035;DHT22;37062;52.546;13.230;2023-04-07T00:15:18;7.00;99.90
51035;DHT22;37062;52.546;13.230;2023-04-07T00:17:48;7.00;99.90
51035;DHT22;37062;52.546;13.230;2023-04-07T00:20:16;7.00;99.90
51035;DHT22;37062;52.546;13.230;2023-04-07T00:22:45;7.00;99.90
51035;DHT22;37062;52.546;13.230;2023-04-07T00:25:13;7.00;99.90
51035;DHT22;37062;52.546;13.230;2023-04-07T00:27:41;6.90;99.90
51035;DHT22;37062;52.546;13.230;2023-04-07T00:30:10;6.90;99.90
51035;DHT22;37062;52.546;13.230;2023-04-07T00:32:38;6.90;99.90
51035;DHT22;37062;52.546;13.230;2023-04-07T00:35:09;6.80;99.90
51035;DHT22;37062;52.546;13.230;2023-04-07T00:37:37;6.60;99.90
51035;DHT22;37062;52.546;13.230;2023-04-07T00:40:06;6.50;99.90
51035;DHT22;37062;52.546;13.230;2023-04-07T00:42:35;6.30;99.90
51035;DHT22;37062;52.546;13.230;2023-04-07T00:45:03;6.30;99.90
51035;DHT22;37062;52.546;13.230;2023-04-07T00:47:31;6.20;99.90
51035;DHT22;37062;52.546;13.230;2023-04-07T00:50:01;6.20;99.90
51035;DHT22;37062;52.546;13.230;2023-04-07T00:52:32;6.10;99.90
51035;DHT22;37062;52.546;13.230;2023-04-07T00:55:00;6.20;99.90
51035;DHT22;37062;52.546;13.230;2023-04-07T00:57:29;6.20;99.90
51035;DHT22;37062;52.546;13.230;2023-04-07T00:59:57;6.20;99.90
51035;DHT22;37062;52.546;13.230;2023-04-07T01:02:31;6.20;99.90
51035;DHT22;37062;52.546;13.230;2023-04-07T01:05:08;6.10;99.90
51035;DHT22;37062;52.546;13.230;2023-04-07T01:07:46;6.10;99.90
51035;DHT22;37062;52.546;13.230;2023-04-07T01:10:20;6.00;99.90
51035;DHT22;37062;52.546;13.230;2023-04-07T01:13:00;6.00;99.90
51035;DHT22;37062;52.546;13.230;2023-04-07T01:15:30;6.00;99.90
51035;DHT22;37062;52.546;13.230;2023-04-07T01:18:07;6.00;99.90
51035;DHT22;37062;52.546;13.230;2023-04-07T01:20:38;6.10;99.90
51035;DHT22;37062;52.546;13.230;2023-04-07T01:23:16;6.00;99.90
51035;DHT22;37062;52.546;13.230;2023-04-07T01:26:03;6.10;99.90
51035;DHT22;37062;52.546;13.230;2023-04-07T01:28:51;6.10;99.90
51035;DHT22;37062;52.546;13.230;2023-04-07T01:31:25;6.10;99.90
51035;DHT22;37062;52.546;13.230;2023-04-07T01:33:55;6.00;99.90
51035;DHT22;37062;52.546;13.230;2023-04-07T01:36:26;6.00;99.90
51035;DHT22;37062;52.546;13.230;2023-04-07T01:38:56;6.00;99.90
51035;DHT22;37062;52.546;13.230;2023-04-07T01:41:25;6.00;99.90
51035;DHT22;37062;52.546;13.230;2023-04-07T01:43:55;6.00;99.90
51035;DHT22;37062;52.546;13.230;2023-04-07T01:46:24;6.00;99.90
51035;DHT22;37062;52.546;13.230;2023-04-07T01:48:53;5.90;99.90
51035;DHT22;37062;52.546;13.230;2023-04-07T01:51:23;5.90;99.90
51035;DHT22;37062;52.546;13.230;2023-04-07T01:53:53;5.90;99.90
51035;DHT22;37062;52.546;13.230;2023-04-07T01:56:22;5.80;99.90
51035;DHT22;37062;52.546;13.230;2023-04-07T01:58:53;5.80;99.90
51035;DHT22;37062;52.546;13.230;2023-04-07T02:01:24;5.80;99.90
51035;DHT22;37062;52.546;13.230;2023-04-07T02:03:55;5.80;99.90
51035;DHT22;37062;52.546;13.230;2023-04-07T02:06:28;5.70;99.90
51035;DHT22;37062;52.546;13.230;2023-04-07T02:09:06;5.70;99.90
51035;DHT22;37062;52.546;13.230;2023-04-07T02:11:36;5.60;99.90
51035;DHT22;37062;52.546;13.230;2023-04-07T02:14:05;5.60;99.90
51035;DHT22;37062;52.546;13.230;2023-04-07T02:16:52;5.50;99.90
51035;DHT22;37062;52.546;13.230;2023-04-07T02:19:20;5.60;99.90
51035;DHT22;37062;52.546;13.230;2023-04-07T02:21:50;5.50;99.90
51035;DHT22;37062;52.546;13.230;2023-04-07T02:24:19;5.50;99.90
51035;DHT22;37062;52.546;13.230;2023-04-07T02:26:48;5.40;99.90
51035;DHT22;37062;52.546;13.230;2023-04-07T02:29:16;5.40;99.90
51035;DHT22;37062;52.546;13.230;2023-04-07T02:31:45;5.40;99.90
51035;DHT22;37062;52.546;13.230;2023-04-07T02:34:14;5.40;99.90
51035;DHT22;37062;52.546;13.230;2023-04-07T02:36:42;5.40;99.90
51035;DHT22;37062;52.546;13.230;2023-04-07T02:39:11;5.40;99.90
51035;DHT22;37062;52.546;13.230;2023-04-07T02:41:40;5.40;99.90
51035;DHT22;37062;52.546;13.230;2023-04-07T02:44:08;5.40;99.90
51035;DHT22;37062;52.546;13.230;2023-04-07T02:46:36;5.40;99.90
51035;DHT22;37062;52.546;13.230;2023-04-07T02:49:05;5.40;99.90
51035;DHT22;37062;52.546;13.230;2023-04-07T02:51:34;5.40;99.90
51035;DHT22;37062;52.546;13.230;2023-04-07T02:54:02;5.40;99.90
51035;DHT22;37062;52.546;13.230;2023-04-07T02:56:31;5.30;99.90
51035;DHT22;37062;52.546;13.230;2023-04-07T02:58:59;5.30;99.90
51035;DHT22;37062;52.546;13.230;2023-04-07T03:01:29;5.30;99.90
51035;DHT22;37062;52.546;13.230;2023-04-07T03:03:58;5.30;99.90
51035;DHT22;37062;52.546;13.230;2023-04-07T03:06:27;5.30;99.90
51035;DHT22;37062;52.546;13.230;2023-04-07T03:09:05;5.30;99.90
51035;DHT22;37062;52.546;13.230;2023-04-07T03:11:34;5.30;99.90
51035;DHT22;37062;52.546;13.230;2023-04-07T03:14:02;5.30;99.90
51035;DHT22;37062;52.546;13.230;2023-04-07T03:16:31;5.30;99.90
51035;DHT22;37062;52.546;13.230;2023-04-07T03:19:07;5.20;99.90
51035;DHT22;37062;52.546;13.230;2023-04-07T03:21:39;5.30;99.90
51035;DHT22;37062;52.546;13.230;2023-04-07T03:24:09;5.20;99.90
51035;DHT22;37062;52.546;13.230;2023-04-07T03:26:38;5.10;99.90
51035;DHT22;37062;52.546;13.230;2023-04-07T03:29:15;5.00;99.90
51035;DHT22;37062;52.546;13.230;2023-04-07T03:31:43;5.00;99.90
51035;DHT22;37062;52.546;13.230;2023-04-07T03:34:14;5.00;99.90
51035;DHT22;37062;52.546;13.230;2023-04-07T03:36:42;5.00;99.90
51035;DHT22;37062;52.546;13.230;2023-04-07T03:39:12;5.00;99.90
51035;DHT22;37062;52.546;13.230;2023-04-07T03:41:40;5.00;99.90
51035;DHT22;37062;52.546;13.230;2023-04-07T03:44:09;5.10;99.90
51035;DHT22;37062;52.546;13.230;2023-04-07T03:46:37;5.10;99.90
51035;DHT22;37062;52.546;13.230;2023-04-07T03:49:08;5.10;99.90
51035;DHT22;37062;52.546;13.230;2023-04-07T03:51:36;5.20;99.90
51035;DHT22;37062;52.546;13.230;2023-04-07T03:54:14;5.20;99.90
51035;DHT22;37062;52.546;13.230;2023-04-07T03:56:44;5.10;99.90
51035;DHT22;37062;52.546;13.230;2023-04-07T03:59:15;5.10;99.90
51035;DHT22;37062;52.546;13.230;2023-04-07T04:01:54;5.10;99.90
51035;DHT22;37062;52.546;13.230;2023-04-07T04:04:23;5.10;99.90
51035;DHT22;37062;52.546;13.230;2023-04-07T04:06:53;5.20;99.90
51035;DHT22;37062;52.546;13.230;2023-04-07T04:09:33;5.20;99.90
51035;DHT22;37062;52.546;13.230;2023-04-07T04:12:03;5.10;99.90
51035;DHT22;37062;52.546;13.230;2023-04-07T04:14:35;5.00;99.90
51035;DHT22;37062;52.546;13.230;2023-04-07T04:17:05;5.00;99.90
51035;DHT22;37062;52.546;13.230;2023-04-07T04:19:39;5.00;99.90
51035;DHT22;37062;52.546;13.230;2023-04-07T04:22:17;5.10;99.90
51035;DHT22;37062;52.546;13.230;2023-04-07T04:24:54;5.10;99.90
51035;DHT22;37062;52.546;13.230;2023-04-07T04:27:24;5.10;99.90
51035;DHT22;37062;52.546;13.230;2023-04-07T04:30:00;5.10;99.90
51035;DHT22;37062;52.546;13.230;2023-04-07T04:32:48;5.20;99.90
51035;DHT22;37062;52.546;13.230;2023-04-07T04:35:21;5.20;99.90
51035;DHT22;37062;52.546;13.230;2023-04-07T04:38:03;5.10;99.90
51035;DHT22;37062;52.546;13.230;2023-04-07T04:40:33;5.20;99.90
51035;DHT22;37062;52.546;13.230;2023-04-07T04:43:03;5.20;99.90
51035;DHT22;37062;52.546;13.230;2023-04-07T04:45:35;5.20;99.90
51035;DHT22;37062;52.546;13.230;2023-04-07T04:48:05;5.30;99.90
51035;DHT22;37062;52.546;13.230;2023-04-07T04:50:34;5.20;99.90
51035;DHT22;37062;52.546;13.230;2023-04-07T04:53:06;5.20;99.90
51035;DHT22;37062;52.546;13.230;2023-04-07T04:55:44;5.10;99.90
51035;DHT22;37062;52.546;13.230;2023-04-07T04:58:21;5.10;99.90
51035;DHT22;37062;52.546;13.230;2023-04-07T05:00:53;5.20;99.90
51035;DHT22;37062;52.546;13.230;2023-04-07T05:03:30;5.20;99.90
51035;DHT22;37062;52.546;13.230;2023-04-07T05:06:02;5.30;99.90
51035;DHT22;37062;52.546;13.230;2023-04-07T05:08:31;5.30;99.90
51035;DHT22;37062;52.546;13.230;2023-04-07T05:11:01;5.30;99.90
51035;DHT22;37062;52.546;13.230;2023-04-07T05:13:32;5.20;99.90
51035;DHT22;37062;52.546;13.230;2023-04-07T05:16:03;5.10;99.90
51035;DHT22;37062;52.546;13.230;2023-04-07T05:18:33;5.10;99.90
51035;DHT22;37062;52.546;13.230;2023-04-07T05:21:03;5.10;99.90
51035;DHT22;37062;52.546;13.230;2023-04-07T05:23:34;5.10;99.90
51035;DHT22;37062;52.546;13.230;2023-04-07T05:26:05;5.20;99.90
51035;DHT22;37062;52.546;13.230;2023-04-07T05:28:35;5.20;99.90
51035;DHT22;37062;52.546;13.230;2023-04-07T05:31:08;5.40;99.90
51035;DHT22;37062;52.546;13.230;2023-04-07T05:33:36;5.60;99.90
51035;DHT22;37062;52.546;13.230;2023-04-07T05:36:05;5.70;99.90
51035;DHT22;37062;52.546;13.230;2023-04-07T05:38:35;5.70;99.90
51035;DHT22;37062;52.546;13.230;2023-04-07T05:41:11;5.80;99.90
51035;DHT22;37062;52.546;13.230;2023-04-07T05:43:39;5.80;99.90
51035;DHT22;37062;52.546;13.230;2023-04-07T05:46:08;5.90;99.90
51035;DHT22;37062;52.546;13.230;2023-04-07T05:48:45;6.00;99.90
51035;DHT22;37062;52.546;13.230;2023-04-07T05:51:14;6.10;99.90
51035;DHT22;37062;52.546;13.230;2023-04-07T05:53:43;6.10;99.90
51035;DHT22;37062;52.546;13.230;2023-04-07T05:56:13;6.20;99.90
51035;DHT22;37062;52.546;13.230;2023-04-07T05:58:46;6.30;99.90
51035;DHT22;37062;52.546;13.230;2023-04-07T06:01:15;6.50;99.90
51035;DHT22;37062;52.546;13.230;2023-04-07T06:03:43;6.60;99.90
51035;DHT22;37062;52.546;13.230;2023-04-07T06:06:15;6.90;99.90
51035;DHT22;37062;52.546;13.230;2023-04-07T06:08:44;7.20;99.90
51035;DHT22;37062;52.546;13.230;2023-04-07T06:11:14;7.60;99.90
51035;DHT22;37062;52.546;13.230;2023-04-07T06:13:43;7.70;99.90
51035;DHT22;37062;52.546;13.230;2023-04-07T06:16:11;7.70;99.90
51035;DHT22;37062;52.546;13.230;2023-04-07T06:18:39;7.60;99.90
51035;DHT22;37062;52.546;13.230;2023-04-07T06:21:07;7.30;99.90
51035;DHT22;37062;52.546;13.230;2023-04-07T06:23:36;7.20;99.90
51035;DHT22;37062;52.546;13.230;2023-04-07T06:26:11;7.10;99.90
51035;DHT22;37062;52.546;13.230;2023-04-07T06:28:40;7.00;99.90
51035;DHT22;37062;52.546;13.230;2023-04-07T06:31:09;7.20;99.90
51035;DHT22;37062;52.546;13.230;2023-04-07T06:33:37;7.60;99.90
51035;DHT22;37062;52.546;13.230;2023-04-07T06:36:06;8.00;99.90
51035;DHT22;37062;52.546;13.230;2023-04-07T06:38:35;8.40;99.90
51035;DHT22;37062;52.546;13.230;2023-04-07T06:41:03;8.60;99.90
51035;DHT22;37062;52.546;13.230;2023-04-07T06:43:32;8.80;99.90
51035;DHT22;37062;52.546;13.230;2023-04-07T06:46:03;9.00;99.90
51035;DHT22;37062;52.546;13.230;2023-04-07T06:48:32;9.20;99.90
51035;DHT22;37062;52.546;13.230;2023-04-07T06:51:00;9.30;99.90
51035;DHT22;37062;52.546;13.230;2023-04-07T06:53:30;9.20;99.90
51035;DHT22;37062;52.546;13.230;2023-04-07T06:56:03;9.20;99.90
51035;DHT22;37062;52.546;13.230;2023-04-07T06:58:31;9.30;99.90
51035;DHT22;37062;52.546;13.230;2023-04-07T07:01:00;9.50;99.90
51035;DHT22;37062;52.546;13.230;2023-04-07T07:03:30;9.70;99.90
51035;DHT22;37062;52.546;13.230;2023-04-07T07:05:59;9.80;99.90
51035;DHT22;37062;52.546;13.230;2023-04-07T07:08:27;9.90;99.90
51035;DHT22;37062;52.546;13.230;2023-04-07T07:10:56;9.90;99.90
51035;DHT22;37062;52.546;13.230;2023-04-07T07:13:26;10.40;99.90
51035;DHT22;37062;52.546;13.230;2023-04-07T07:15:54;10.70;99.90
51035;DHT22;37062;52.546;13.230;2023-04-07T07:18:22;10.70;99.90
51035;DHT22;37062;52.546;13.230;2023-04-07T07:20:52;10.50;99.90
51035;DHT22;37062;52.546;13.230;2023-04-07T07:23:20;10.60;99.90
51035;DHT22;37062;52.546;13.230;2023-04-07T07:25:48;10.70;99.90
51035;DHT22;37062;52.546;13.230;2023-04-07T07:28:17;10.70;99.90
51035;DHT22;37062;52.546;13.230;2023-04-07T07:30:48;10.60;99.90
51035;DHT22;37062;52.546;13.230;2023-04-07T07:33:16;10.60;99.90
51035;DHT22;37062;52.546;13.230;2023-04-07T07:35:45;10.50;99.90
51035;DHT22;37062;52.546;13.230;2023-04-07T07:38:14;10.60;99.90
51035;DHT22;37062;52.546;13.230;2023-04-07T07:40:43;10.60;99.90
51035;DHT22;37062;52.546;13.230;2023-04-07T07:43:12;10.60;99.90
51035;DHT22;37062;52.546;13.230;2023-04-07T07:45:41;10.60;99.90
51035;DHT22;37062;52.546;13.230;2023-04-07T07:48:09;10.80;99.90
51035;DHT22;37062;52.546;13.230;2023-04-07T07:50:37;11.10;99.90
51035;DHT22;37062;52.546;13.230;2023-04-07T07:53:06;11.30;99.90
51035;DHT22;37062;52.546;13.230;2023-04-07T07:55:36;11.30;99.90
51035;DHT22;37062;52.546;13.230;2023-04-07T07:58:04;11.10;99.90
51035;DHT22;37062;52.546;13.230;2023-04-07T08:00:32;10.90;99.90
51035;DHT22;37062;52.546;13.230;2023-04-07T08:03:01;10.90;99.90
51035;DHT22;37062;52.546;13.230;2023-04-07T08:05:29;10.90;99.90
51035;DHT22;37062;52.546;13.230;2023-04-07T08:07:57;10.60;99.90
51035;DHT22;37062;52.546;13.230;2023-04-07T08:10:26;10.60;99.90
51035;DHT22;37062;52.546;13.230;2023-04-07T08:12:56;10.50;99.90
51035;DHT22;37062;52.546;13.230;2023-04-07T08:15:24;10.30;99.90
51035;DHT22;37062;52.546;13.230;2023-04-07T08:17:52;10.20;99.90
51035;DHT22;37062;52.546;13.230;2023-04-07T08:20:22;10.20;99.90
51035;DHT22;37062;52.546;13.230;2023-04-07T08:22:50;10.00;99.90
51035;DHT22;37062;52.546;13.230;2023-04-07T08:25:19;9.90;99.90
51035;DHT22;37062;52.546;13.230;2023-04-07T08:27:47;9.80;99.90
51035;DHT22;37062;52.546;13.230;2023-04-07T08:30:17;9.70;99.90
51035;DHT22;37062;52.546;13.230;2023-04-07T08:32:47;9.70;99.90
51035;DHT22;37062;52.546;13.230;2023-04-07T08:35:16;9.60;99.90
51035;DHT22;37062;52.546;13.230;2023-04-07T08:37:44;9.70;99.90
51035;DHT22;37062;52.546;13.230;2023-04-07T08:40:13;9.70;99.90
51035;DHT22;37062;52.546;13.230;2023-04-07T08:42:42;9.80;99.90
51035;DHT22;37062;52.546;13.230;2023-04-07T08:45:13;9.90;99.90
51035;DHT22;37062;52.546;13.230;2023-04-07T08:47:45;9.90;99.90
51035;DHT22;37062;52.546;13.230;2023-04-07T08:50:16;10.00;99.90
51035;DHT22;37062;52.546;13.230;2023-04-07T08:52:48;9.90;99.90
51035;DHT22;37062;52.546;13.230;2023-04-07T08:55:17;9.70;99.90
51035;DHT22;37062;52.546;13.230;2023-04-07T08:57:46;9.50;99.90
51035;DHT22;37062;52.546;13.230;2023-04-07T09:00:15;9.40;99.90
51035;DHT22;37062;52.546;13.230;2023-04-07T09:02:44;9.20;99.90
51035;DHT22;37062;52.546;13.230;2023-04-07T09:05:15;9.30;99.90
51035;DHT22;37062;52.546;13.230;2023-04-07T09:07:43;9.20;99.90
51035;DHT22;37062;52.546;13.230;2023-04-07T09:10:12;9.30;99.90
51035;DHT22;37062;52.546;13.230;2023-04-07T09:12:40;9.50;99.90
51035;DHT22;37062;52.546;13.230;2023-04-07T09:15:09;9.70;99.90
51035;DHT22;37062;52.546;13.230;2023-04-07T09:17:37;9.90;99.90
51035;DHT22;37062;52.546;13.230;2023-04-07T09:20:07;9.80;99.90
51035;DHT22;37062;52.546;13.230;2023-04-07T09:22:37;9.80;99.90
51035;DHT22;37062;52.546;13.230;2023-04-07T09:25:12;9.80;99.90
51035;DHT22;37062;52.546;13.230;2023-04-07T09:27:40;9.60;99.90
51035;DHT22;37062;52.546;13.230;2023-04-07T09:31:45;9.60;99.90
51035;DHT22;37062;52.546;13.230;2023-04-07T09:34:23;9.60;99.90
51035;DHT22;37062;52.546;13.230;2023-04-07T09:36:52;9.50;99.90
51035;DHT22;37062;52.546;13.230;2023-04-07T09:39:20;9.40;99.90
51035;DHT22;37062;52.546;13.230;2023-04-07T09:41:49;9.30;99.90
51035;DHT22;37062;52.546;13.230;2023-04-07T09:44:18;9.40;99.90
51035;DHT22;37062;52.546;13.230;2023-04-07T09:46:52;9.40;99.90
51035;DHT22;37062;52.546;13.230;2023-04-07T09:49:20;9.50;99.90
51035;DHT22;37062;52.546;13.230;2023-04-07T09:51:55;9.50;99.90
51035;DHT22;37062;52.546;13.230;2023-04-07T09:54:31;9.60;99.90
51035;DHT22;37062;52.546;13.230;2023-04-07T09:57:01;9.50;99.90
51035;DHT22;37062;52.546;13.230;2023-04-07T09:59:31;9.50;99.90
51035;DHT22;37062;52.546;13.230;2023-04-07T10:02:01;9.60;99.90
51035;DHT22;37062;52.546;13.230;2023-04-07T10:04:30;9.70;99.90
51035;DHT22;37062;52.546;13.230;2023-04-07T10:06:59;9.60;99.90
51035;DHT22;37062;52.546;13.230;2023-04-07T10:09:29;9.50;99.90
51035;DHT22;37062;52.546;13.230;2023-04-07T10:11:58;9.60;99.90
51035;DHT22;37062;52.546;13.230;2023-04-07T10:14:29;9.80;99.90
51035;DHT22;37062;52.546;13.230;2023-04-07T10:16:58;9.70;99.90
51035;DHT22;37062;52.546;13.230;2023-04-07T10:19:30;9.70;99.90
51035;DHT22;37062;52.546;13.230;2023-04-07T10:22:01;9.70;99.90
51035;DHT22;37062;52.546;13.230;2023-04-07T10:24:41;9.80;99.90
51035;DHT22;37062;52.546;13.230;2023-04-07T10:27:17;9.80;99.90
51035;DHT22;37062;52.546;13.230;2023-04-07T10:29:48;9.70;99.90
51035;DHT22;37062;52.546;13.230;2023-04-07T10:32:18;9.70;99.90
51035;DHT22;37062;52.546;13.230;2023-04-07T10:34:58;9.60;99.90
51035;DHT22;37062;52.546;13.230;2023-04-07T10:37:28;9.50;99.90
51035;DHT22;37062;52.546;13.230;2023-04-07T10:40:28;9.50;99.90
51035;DHT22;37062;52.546;13.230;2023-04-07T10:42:57;9.40;99.90
51035;DHT22;37062;52.546;13.230;2023-04-07T10:45:53;9.50;99.90
51035;DHT22;37062;52.546;13.230;2023-04-07T10:48:25;9.40;99.90
51035;DHT22;37062;52.546;13.230;2023-04-07T10:51:15;9.40;99.90
51035;DHT22;37062;52.546;13.230;2023-04-07T10:54:17;9.40;99.90
51035;DHT22;37062;52.546;13.230;2023-04-07T10:57:06;9.30;99.90
51035;DHT22;37062;52.546;13.230;2023-04-07T10:59:38;9.40;99.90
51035;DHT22;37062;52.546;13.230;2023-04-07T11:02:32;9.30;99.90
51035;DHT22;37062;52.546;13.230;2023-04-07T11:05:02;9.50;99.90
51035;DHT22;37062;52.546;13.230;2023-04-07T11:07:52;9.60;99.90
51035;DHT22;37062;52.546;13.230;2023-04-07T11:10:23;9.60;99.90
51035;DHT22;37062;52.546;13.230;2023-04-07T11:13:03;9.60;99.90
51035;DHT22;37062;52.546;13.230;2023-04-07T11:15:33;9.50;99.90
51035;DHT22;37062;52.546;13.230;2023-04-07T11:18:10;9.40;99.90
51035;DHT22;37062;52.546;13.230;2023-04-07T11:20:43;9.20;99.90
51035;DHT22;37062;52.546;13.230;2023-04-07T11:23:14;9.10;99.90
51035;DHT22;37062;52.546;13.230;2023-04-07T11:25:44;9.20;99.90
51035;DHT22;37062;52.546;13.230;2023-04-07T11:28:13;9.20;99.90
51035;DHT22;37062;52.546;13.230;2023-04-07T11:30:47;9.20;99.90
51035;DHT22;37062;52.546;13.230;2023-04-07T11:33:19;9.40;99.90
51035;DHT22;37062;52.546;13.230;2023-04-07T11:35:53;9.40;99.90
51035;DHT22;37062;52.546;13.230;2023-04-07T11:38:29;9.30;99.90
51035;DHT22;37062;52.546;13.230;2023-04-07T11:41:09;9.20;99.90
51035;DHT22;37062;52.546;13.230;2023-04-07T11:43:37;9.30;99.90
51035;DHT22;37062;52.546;13.230;2023-04-07T11:46:09;9.30;99.90
51035;DHT22;37062;52.546;13.230;2023-04-07T11:48:39;9.40;99.90
51035;DHT22;37062;52.546;13.230;2023-04-07T11:51:15;9.40;99.90
51035;DHT22;37062;52.546;13.230;2023-04-07T11:53:45;9.50;99.90
51035;DHT22;37062;52.546;13.230;2023-04-07T11:56:15;9.40;99.90
51035;DHT22;37062;52.546;13.230;2023-04-07T11:58:48;9.50;99.90
51035;DHT22;37062;52.546;13.230;2023-04-07T12:01:16;9.70;99.90
51035;DHT22;37062;52.546;13.230;2023-04-07T12:03:55;9.60;99.90
51035;DHT22;37062;52.546;13.230;2023-04-07T12:06:26;9.60;99.90
51035;DHT22;37062;52.546;13.230;2023-04-07T12:08:58;9.60;99.90
51035;DHT22;37062;52.546;13.230;2023-04-07T12:11:26;9.60;99.90
51035;DHT22;37062;52.546;13.230;2023-04-07T12:13:55;9.70;99.90
51035;DHT22;37062;52.546;13.230;2023-04-07T12:16:23;9.60;99.90
51035;DHT22;37062;52.546;13.230;2023-04-07T12:18:52;9.60;99.90
51035;DHT22;37062;52.546;13.230;2023-04-07T12:21:20;9.30;99.90
51035;DHT22;37062;52.546;13.230;2023-04-07T12:23:50;9.10;99.90
51035;DHT22;37062;52.546;13.230;2023-04-07T12:26:19;9.10;99.90
51035;DHT22;37062;52.546;13.230;2023-04-07T12:28:51;8.90;99.90
51035;DHT22;37062;52.546;13.230;2023-04-07T12:31:21;8.70;99.90
51035;DHT22;37062;52.546;13.230;2023-04-07T12:33:49;8.70;99.90
51035;DHT22;37062;52.546;13.230;2023-04-07T12:36:17;8.80;99.90
51035;DHT22;37062;52.546;13.230;2023-04-07T12:38:45;9.00;99.90
51035;DHT22;37062;52.546;13.230;2023-04-07T12:41:14;8.90;99.90
51035;DHT22;37062;52.546;13.230;2023-04-07T12:43:43;8.80;99.90
51035;DHT22;37062;52.546;13.230;2023-04-07T12:46:13;8.80;99.90
51035;DHT22;37062;52.546;13.230;2023-04-07T12:48:41;8.70;99.90
51035;DHT22;37062;52.546;13.230;2023-04-07T12:51:09;8.60;99.90
51035;DHT22;37062;52.546;13.230;2023-04-07T12:53:40;8.60;99.90
51035;DHT22;37062;52.546;13.230;2023-04-07T12:56:08;8.60;99.90
51035;DHT22;37062;52.546;13.230;2023-04-07T12:58:39;8.60;99.90
51035;DHT22;37062;52.546;13.230;2023-04-07T13:01:08;8.60;99.90
51035;DHT22;37062;52.546;13.230;2023-04-07T13:03:37;8.80;99.90
51035;DHT22;37062;52.546;13.230;2023-04-07T13:06:06;9.00;99.90
51035;DHT22;37062;52.546;13.230;2023-04-07T13:08:34;8.90;99.90
51035;DHT22;37062;52.546;13.230;2023-04-07T13:11:03;8.80;99.90
51035;DHT22;37062;52.546;13.230;2023-04-07T13:13:32;8.70;99.90
51035;DHT22;37062;52.546;13.230;2023-04-07T13:16:00;8.70;99.90
51035;DHT22;37062;52.546;13.230;2023-04-07T13:18:30;8.60;99.90
51035;DHT22;37062;52.546;13.230;2023-04-07T13:20:58;8.60;99.90
51035;DHT22;37062;52.546;13.230;2023-04-07T13:23:29;8.60;99.90
51035;DHT22;37062;52.546;13.230;2023-04-07T13:26:09;8.60;99.90
51035;DHT22;37062;52.546;13.230;2023-04-07T13:28:38;8.70;99.90
51035;DHT22;37062;52.546;13.230;2023-04-07T13:31:06;8.80;99.90
51035;DHT22;37062;52.546;13.230;2023-04-07T13:33:39;8.60;99.90
51035;DHT22;37062;52.546;13.230;2023-04-07T13:36:07;8.60;99.90
51035;DHT22;37062;52.546;13.230;2023-04-07T13:38:36;8.70;99.90
51035;DHT22;37062;52.546;13.230;2023-04-07T13:41:04;8.80;99.90
51035;DHT22;37062;52.546;13.230;2023-04-07T13:43:33;8.80;99.90
51035;DHT22;37062;52.546;13.230;2023-04-07T13:46:01;8.70;99.90
51035;DHT22;37062;52.546;13.230;2023-04-07T13:48:35;8.80;99.90
51035;DHT22;37062;52.546;13.230;2023-04-07T13:51:05;8.80;99.90
51035;DHT22;37062;52.546;13.230;2023-04-07T13:53:33;8.80;99.90
51035;DHT22;37062;52.546;13.230;2023-04-07T13:56:02;8.70;99.90
51035;DHT22;37062;52.546;13.230;2023-04-07T13:58:32;8.60;99.90
51035;DHT22;37062;52.546;13.230;2023-04-07T14:01:00;8.40;99.90
51035;DHT22;37062;52.546;13.230;2023-04-07T14:03:29;8.40;99.90
51035;DHT22;37062;52.546;13.230;2023-04-07T14:05:57;8.40;99.90
51035;DHT22;37062;52.546;13.230;2023-04-07T14:08:28;8.50;99.90
51035;DHT22;37062;52.546;13.230;2023-04-07T14:10:56;8.60;99.90
51035;DHT22;37062;52.546;13.230;2023-04-07T14:13:25;8.50;99.90
51035;DHT22;37062;52.546;13.230;2023-04-07T14:15:53;8.50;99.90
51035;DHT22;37062;52.546;13.230;2023-04-07T14:18:22;8.50;99.90
51035;DHT22;37062;52.546;13.230;2023-04-07T14:20:50;8.50;99.90
51035;DHT22;37062;52.546;13.230;2023-04-07T14:23:18;8.60;99.90
51035;DHT22;37062;52.546;13.230;2023-04-07T14:26:03;8.60;99.90
51035;DHT22;37062;52.546;13.230;2023-04-07T14:28:31;8.60;99.90
51035;DHT22;37062;52.546;13.230;2023-04-07T14:31:00;8.60;99.90
51035;DHT22;37062;52.546;13.230;2023-04-07T14:33:28;8.60;99.90
51035;DHT22;37062;52.546;13.230;2023-04-07T14:35:57;8.60;99.90
51035;DHT22;37062;52.546;13.230;2023-04-07T14:38:25;8.60;99.90
51035;DHT22;37062;52.546;13.230;2023-04-07T14:40:54;8.60;99.90
51035;DHT22;37062;52.546;13.230;2023-04-07T14:43:23;8.70;99.90
51035;DHT22;37062;52.546;13.230;2023-04-07T14:45:52;8.60;99.90
51035;DHT22;37062;52.546;13.230;2023-04-07T14:48:20;8.50;99.90
51035;DHT22;37062;52.546;13.230;2023-04-07T14:50:49;8.50;99.90
51035;DHT22;37062;52.546;13.230;2023-04-07T14:53:34;8.50;99.90
51035;DHT22;37062;52.546;13.230;2023-04-07T14:56:03;8.40;99.90
51035;DHT22;37062;52.546;13.230;2023-04-07T14:58:33;8.40;99.90
51035;DHT22;37062;52.546;13.230;2023-04-07T15:01:03;8.40;99.90
51035;DHT22;37062;52.546;13.230;2023-04-07T15:03:33;8.30;99.90
51035;DHT22;37062;52.546;13.230;2023-04-07T15:06:06;8.30;99.90
51035;DHT22;37062;52.546;13.230;2023-04-07T15:08:34;8.30;99.90
51035;DHT22;37062;52.546;13.230;2023-04-07T15:11:03;8.40;99.90
51035;DHT22;37062;52.546;13.230;2023-04-07T15:13:34;8.50;99.90
51035;DHT22;37062;52.546;13.230;2023-04-07T15:16:07;8.70;99.90
51035;DHT22;37062;52.546;13.230;2023-04-07T15:18:38;8.70;99.90
51035;DHT22;37062;52.546;13.230;2023-04-07T15:21:08;8.80;99.90
51035;DHT22;37062;52.546;13.230;2023-04-07T15:23:37;8.70;99.90
51035;DHT22;37062;52.546;13.230;2023-04-07T15:26:07;8.60;99.90
51035;DHT22;37062;52.546;13.230;2023-04-07T15:28:37;8.60;99.90
51035;DHT22;37062;52.546;13.230;2023-04-07T15:31:05;8.40;99.90
51035;DHT22;37062;52.546;13.230;2023-04-07T15:33:36;8.50;99.90
51035;DHT22;37062;52.546;13.230;2023-04-07T15:36:05;8.50;99.90
51035;DHT22;37062;52.546;13.230;2023-04-07T15:38:34;8.40;99.90
51035;DHT22;37062;52.546;13.230;2023-04-07T15:41:02;8.40;99.90
51035;DHT22;37062;52.546;13.230;2023-04-07T15:43:30;8.40;99.90
51035;DHT22;37062;52.546;13.230;2023-04-07T15:46:01;8.30;99.90
51035;DHT22;37062;52.546;13.230;2023-04-07T15:48:30;8.40;99.90
51035;DHT22;37062;52.546;13.230;2023-04-07T15:50:58;8.40;99.90
51035;DHT22;37062;52.546;13.230;2023-04-07T15:53:26;8.30;99.90